sensor_id;sensor_type;location;lat;lon;timestamp;P1;durP1;ratioP1;P2;durP2;ratioP2
20697;SDS011;10508;50.956;4.640;2024-03-06T00:02:24;26.10;;;9.50;;
20697;SDS011;10508;50.956;4.640;2024-03-06T00:04:49;24.20;;;9.05;;
20697;SDS011;10508;50.956;4.640;2024-03-06T00:07:15;12.63;;;6.55;;
20697;SDS011;10508;50.956;4.640;2024-03-06T00:09:41;11.35;;;6.47;;
20697;SDS011;10508;50.956;4.640;2024-03-06T00:12:08;12.63;;;6.38;;
20697;SDS011;10508;50.956;4.640;2024-03-06T00:14:33;9.30;;;5.68;;
20697;SDS011;10508;50.956;4.640;2024-03-06T00:17:01;10.85;;;5.80;;
20697;SDS011;10508;50.956;4.640;2024-03-06T00:19:29;8.73;;;5.38;;
20697;SDS011;10508;50.956;4.640;2024-03-06T00:21:55;13.05;;;6.30;;
20697;SDS011;10508;50.956;4.640;2024-03-06T00:24:21;8.60;;;5.40;;
20697;SDS011;10508;50.956;4.640;2024-03-06T00:26:48;10.15;;;6.10;;
20697;SDS011;10508;50.956;4.640;2024-03-06T00:29:14;10.35;;;5.88;;
20697;SDS011;10508;50.956;4.640;2024-03-06T00:31:43;9.32;;;5.80;;
20697;SDS011;10508;50.956;4.640;2024-03-06T00:34:10;8.98;;;5.85;;
20697;SDS011;10508;50.956;4.640;2024-03-06T00:36:39;7.90;;;4.85;;
20697;SDS011;10508;50.956;4.640;2024-03-06T00:39:05;8.70;;;5.25;;
20697;SDS011;10508;50.956;4.640;2024-03-06T00:41:33;8.10;;;4.95;;
20697;SDS011;10508;50.956;4.640;2024-03-06T00:44:02;8.32;;;5.22;;
20697;SDS011;10508;50.956;4.640;2024-03-06T00:46:28;8.02;;;5.10;;
20697;SDS011;10508;50.956;4.640;2024-03-06T00:48:54;6.55;;;4.25;;
20697;SDS011;10508;50.956;4.640;2024-03-06T00:51:20;10.43;;;5.15;;
20697;SDS011;10508;50.956;4.640;2024-03-06T00:53:45;9.45;;;5.75;;
20697;SDS011;10508;50.956;4.640;2024-03-06T00:56:11;7.40;;;4.57;;
20697;SDS011;10508;50.956;4.640;2024-03-06T00:58:37;7.22;;;4.88;;
20697;SDS011;10508;50.956;4.640;2024-03-06T01:01:03;9.77;;;5.47;;
20697;SDS011;10508;50.956;4.640;2024-03-06T01:03:29;6.97;;;4.93;;
20697;SDS011;10508;50.956;4.640;2024-03-06T01:05:55;8.57;;;5.22;;
20697;SDS011;10508;50.956;4.640;2024-03-06T01:08:21;9.50;;;5.85;;
20697;SDS011;10508;50.956;4.640;2024-03-06T01:10:50;8.13;;;5.82;;
20697;SDS011;10508;50.956;4.640;2024-03-06T01:13:17;7.63;;;5.10;;
20697;SDS011;10508;50.956;4.640;2024-03-06T01:15:45;8.93;;;5.57;;
20697;SDS011;10508;50.956;4.640;2024-03-06T01:18:11;11.02;;;5.47;;
20697;SDS011;10508;50.956;4.640;2024-03-06T01:20:52;8.80;;;5.43;;
20697;SDS011;10508;50.956;4.640;2024-03-06T01:23:18;8.88;;;5.45;;
20697;SDS011;10508;50.956;4.640;2024-03-06T01:25:44;10.90;;;6.57;;
20697;SDS011;10508;50.956;4.640;2024-03-06T01:28:10;13.27;;;6.40;;
20697;SDS011;10508;50.956;4.640;2024-03-06T01:30:35;10.15;;;5.70;;
20697;SDS011;10508;50.956;4.640;2024-03-06T01:33:01;13.07;;;7.25;;
20697;SDS011;10508;50.956;4.640;2024-03-06T01:35:27;10.77;;;6.07;;
20697;SDS011;10508;50.956;4.640;2024-03-06T01:37:53;8.55;;;5.57;;
20697;SDS011;10508;50.956;4.640;2024-03-06T01:40:18;11.75;;;6.18;;
20697;SDS011;10508;50.956;4.640;2024-03-06T01:42:46;13.55;;;5.70;;
20697;SDS011;10508;50.956;4.640;2024-03-06T01:45:13;9.70;;;6.03;;
20697;SDS011;10508;50.956;4.640;2024-03-06T01:47:51;10.25;;;6.22;;
20697;SDS011;10508;50.956;4.640;2024-03-06T01:50:17;17.10;;;6.85;;
20697;SDS011;10508;50.956;4.640;2024-03-06T01:52:43;11.48;;;6.25;;
20697;SDS011;10508;50.956;4.640;2024-03-06T01:55:11;11.38;;;6.57;;
20697;SDS011;10508;50.956;4.640;2024-03-06T01:57:38;12.40;;;5.93;;
20697;SDS011;10508;50.956;4.640;2024-03-06T02:00:05;11.57;;;6.78;;
20697;SDS011;10508;50.956;4.640;2024-03-06T02:02:39;11.27;;;6.15;;
20697;SDS011;10508;50.956;4.640;2024-03-06T02:05:06;9.57;;;5.97;;
20697;SDS011;10508;50.956;4.640;2024-03-06T02:07:32;9.95;;;6.40;;
20697;SDS011;10508;50.956;4.640;2024-03-06T02:09:59;10.52;;;6.32;;
20697;SDS011;10508;50.956;4.640;2024-03-06T02:12:24;10.07;;;6.35;;
20697;SDS011;10508;50.956;4.640;2024-03-06T02:14:50;10.02;;;6.15;;
20697;SDS011;10508;50.956;4.640;2024-03-06T02:17:16;12.02;;;7.00;;
20697;SDS011;10508;50.956;4.640;2024-03-06T02:19:43;12.95;;;6.57;;
20697;SDS011;10508;50.956;4.640;2024-03-06T02:22:09;9.68;;;5.50;;
20697;SDS011;10508;50.956;4.640;2024-03-06T02:24:36;10.30;;;5.85;;
20697;SDS011;10508;50.956;4.640;2024-03-06T02:27:02;12.00;;;5.82;;
20697;SDS011;10508;50.956;4.640;2024-03-06T02:29:31;8.90;;;5.75;;
20697;SDS011;10508;50.956;4.640;2024-03-06T02:31:57;14.40;;;6.82;;
20697;SDS011;10508;50.956;4.640;2024-03-06T02:34:23;11.38;;;5.90;;
20697;SDS011;10508;50.956;4.640;2024-03-06T02:36:50;14.20;;;6.30;;
20697;SDS011;10508;50.956;4.640;2024-03-06T02:39:17;11.23;;;6.18;;
20697;SDS011;10508;50.956;4.640;2024-03-06T02:41:43;11.50;;;6.10;;
20697;SDS011;10508;50.956;4.640;2024-03-06T02:44:08;11.98;;;6.22;;
20697;SDS011;10508;50.956;4.640;2024-03-06T02:46:34;12.02;;;6.85;;
20697;SDS011;10508;50.956;4.640;2024-03-06T02:49:00;10.07;;;5.88;;
20697;SDS011;10508;50.956;4.640;2024-03-06T02:51:26;8.57;;;5.15;;
20697;SDS011;10508;50.956;4.640;2024-03-06T02:53:52;9.73;;;5.45;;
20697;SDS011;10508;50.956;4.640;2024-03-06T02:56:18;13.48;;;5.85;;
20697;SDS011;10508;50.956;4.640;2024-03-06T02:58:45;12.63;;;5.65;;
20697;SDS011;10508;50.956;4.640;2024-03-06T03:01:11;10.13;;;5.38;;
20697;SDS011;10508;50.956;4.640;2024-03-06T03:03:40;8.93;;;5.70;;
20697;SDS011;10508;50.956;4.640;2024-03-06T03:06:06;12.07;;;5.70;;
20697;SDS011;10508;50.956;4.640;2024-03-06T03:08:32;9.82;;;5.90;;
20697;SDS011;10508;50.956;4.640;2024-03-06T03:10:58;8.65;;;5.32;;
20697;SDS011;10508;50.956;4.640;2024-03-06T03:13:24;12.73;;;6.65;;
20697;SDS011;10508;50.956;4.640;2024-03-06T03:15:50;10.82;;;6.13;;
20697;SDS011;10508;50.956;4.640;2024-03-06T03:18:16;11.18;;;5.97;;
20697;SDS011;10508;50.956;4.640;2024-03-06T03:20:42;10.15;;;5.72;;
20697;SDS011;10508;50.956;4.640;2024-03-06T03:23:08;9.82;;;6.18;;
20697;SDS011;10508;50.956;4.640;2024-03-06T03:25:37;15.63;;;6.20;;
20697;SDS011;10508;50.956;4.640;2024-03-06T03:28:03;9.25;;;5.40;;
20697;SDS011;10508;50.956;4.640;2024-03-06T03:30:30;13.07;;;6.00;;
20697;SDS011;10508;50.956;4.640;2024-03-06T03:32:57;9.80;;;5.70;;
20697;SDS011;10508;50.956;4.640;2024-03-06T03:35:23;11.48;;;6.20;;
20697;SDS011;10508;50.956;4.640;2024-03-06T03:37:53;10.27;;;6.15;;
20697;SDS011;10508;50.956;4.640;2024-03-06T03:40:20;12.75;;;6.20;;
20697;SDS011;10508;50.956;4.640;2024-03-06T03:42:46;10.25;;;5.97;;
20697;SDS011;10508;50.956;4.640;2024-03-06T03:45:12;9.57;;;5.82;;
20697;SDS011;10508;50.956;4.640;2024-03-06T03:47:38;13.32;;;5.95;;
20697;SDS011;10508;50.956;4.640;2024-03-06T03:50:05;11.38;;;6.03;;
20697;SDS011;10508;50.956;4.640;2024-03-06T03:52:33;12.50;;;7.00;;
20697;SDS011;10508;50.956;4.640;2024-03-06T03:54:59;14.98;;;7.03;;
20697;SDS011;10508;50.956;4.640;2024-03-06T03:57:25;11.40;;;6.72;;
20697;SDS011;10508;50.956;4.640;2024-03-06T03:59:51;11.85;;;6.78;;
20697;SDS011;10508;50.956;4.640;2024-03-06T04:02:16;14.77;;;6.57;;
20697;SDS011;10508;50.956;4.640;2024-03-06T04:04:42;10.23;;;6.18;;
20697;SDS011;10508;50.956;4.640;2024-03-06T04:07:08;10.75;;;6.65;;
20697;SDS011;10508;50.956;4.640;2024-03-06T04:09:34;13.43;;;7.30;;
20697;SDS011;10508;50.956;4.640;2024-03-06T04:12:04;13.45;;;7.13;;
20697;SDS011;10508;50.956;4.640;2024-03-06T04:14:30;11.57;;;6.20;;
20697;SDS011;10508;50.956;4.640;2024-03-06T04:16:56;16.35;;;6.30;;
20697;SDS011;10508;50.956;4.640;2024-03-06T04:19:21;12.27;;;7.15;;
20697;SDS011;10508;50.956;4.640;2024-03-06T04:21:47;10.05;;;5.97;;
20697;SDS011;10508;50.956;4.640;2024-03-06T04:24:13;15.15;;;6.63;;
20697;SDS011;10508;50.956;4.640;2024-03-06T04:26:40;12.35;;;6.68;;
20697;SDS011;10508;50.956;4.640;2024-03-06T04:29:05;11.55;;;6.80;;
20697;SDS011;10508;50.956;4.640;2024-03-06T04:31:31;9.85;;;5.55;;
20697;SDS011;10508;50.956;4.640;2024-03-06T04:33:57;16.20;;;7.20;;
20697;SDS011;10508;50.956;4.640;2024-03-06T04:36:22;16.13;;;6.32;;
20697;SDS011;10508;50.956;4.640;2024-03-06T04:38:48;11.57;;;6.00;;
20697;SDS011;10508;50.956;4.640;2024-03-06T04:41:14;11.93;;;5.28;;
20697;SDS011;10508;50.956;4.640;2024-03-06T04:43:40;9.50;;;6.05;;
20697;SDS011;10508;50.956;4.640;2024-03-06T04:46:06;12.05;;;5.70;;
20697;SDS011;10508;50.956;4.640;2024-03-06T04:48:38;16.95;;;6.43;;
20697;SDS011;10508;50.956;4.640;2024-03-06T04:51:04;11.48;;;6.30;;
20697;SDS011;10508;50.956;4.640;2024-03-06T04:53:30;16.73;;;6.55;;
20697;SDS011;10508;50.956;4.640;2024-03-06T04:55:56;10.63;;;5.88;;
20697;SDS011;10508;50.956;4.640;2024-03-06T04:58:22;13.02;;;6.10;;
20697;SDS011;10508;50.956;4.640;2024-03-06T05:00:48;11.77;;;6.30;;
20697;SDS011;10508;50.956;4.640;2024-03-06T05:03:13;15.23;;;6.78;;
20697;SDS011;10508;50.956;4.640;2024-03-06T05:05:40;10.77;;;6.20;;
20697;SDS011;10508;50.956;4.640;2024-03-06T05:08:06;14.32;;;7.72;;
20697;SDS011;10508;50.956;4.640;2024-03-06T05:10:32;13.45;;;6.85;;
20697;SDS011;10508;50.956;4.640;2024-03-06T05:12:58;18.30;;;7.47;;
20697;SDS011;10508;50.956;4.640;2024-03-06T05:15:23;13.10;;;6.88;;
20697;SDS011;10508;50.956;4.640;2024-03-06T05:17:49;13.18;;;7.10;;
20697;SDS011;10508;50.956;4.640;2024-03-06T05:20:15;14.70;;;7.57;;
20697;SDS011;10508;50.956;4.640;2024-03-06T05:22:41;12.23;;;6.57;;
20697;SDS011;10508;50.956;4.640;2024-03-06T05:25:07;15.57;;;7.18;;
20697;SDS011;10508;50.956;4.640;2024-03-06T05:27:33;13.93;;;6.97;;
20697;SDS011;10508;50.956;4.640;2024-03-06T05:29:59;17.50;;;6.82;;
20697;SDS011;10508;50.956;4.640;2024-03-06T05:32:25;15.05;;;6.57;;
20697;SDS011;10508;50.956;4.640;2024-03-06T05:34:50;14.13;;;7.20;;
20697;SDS011;10508;50.956;4.640;2024-03-06T05:37:16;10.93;;;6.15;;
20697;SDS011;10508;50.956;4.640;2024-03-06T05:39:42;13.02;;;6.57;;
20697;SDS011;10508;50.956;4.640;2024-03-06T05:42:08;14.48;;;6.75;;
20697;SDS011;10508;50.956;4.640;2024-03-06T05:44:34;13.27;;;6.70;;
20697;SDS011;10508;50.956;4.640;2024-03-06T05:47:00;12.02;;;6.88;;
20697;SDS011;10508;50.956;4.640;2024-03-06T05:49:28;13.00;;;6.47;;
20697;SDS011;10508;50.956;4.640;2024-03-06T05:51:54;13.75;;;7.00;;
20697;SDS011;10508;50.956;4.640;2024-03-06T05:54:20;13.27;;;6.95;;
20697;SDS011;10508;50.956;4.640;2024-03-06T05:56:50;15.40;;;6.68;;
20697;SDS011;10508;50.956;4.640;2024-03-06T05:59:21;17.77;;;7.63;;
20697;SDS011;10508;50.956;4.640;2024-03-06T06:01:49;12.70;;;7.25;;
20697;SDS011;10508;50.956;4.640;2024-03-06T06:04:14;15.13;;;6.78;;
20697;SDS011;10508;50.956;4.640;2024-03-06T06:06:40;14.20;;;7.18;;
20697;SDS011;10508;50.956;4.640;2024-03-06T06:09:06;12.60;;;7.18;;
20697;SDS011;10508;50.956;4.640;2024-03-06T06:11:37;26.10;;;7.90;;
20697;SDS011;10508;50.956;4.640;2024-03-06T06:14:03;19.88;;;6.57;;
20697;SDS011;10508;50.956;4.640;2024-03-06T06:16:37;17.85;;;7.53;;
20697;SDS011;10508;50.956;4.640;2024-03-06T06:19:03;16.60;;;7.07;;
20697;SDS011;10508;50.956;4.640;2024-03-06T06:21:29;15.60;;;7.30;;
20697;SDS011;10508;50.956;4.640;2024-03-06T06:23:55;14.25;;;7.18;;
20697;SDS011;10508;50.956;4.640;2024-03-06T06:26:21;13.25;;;7.13;;
20697;SDS011;10508;50.956;4.640;2024-03-06T06:28:47;14.25;;;7.07;;
20697;SDS011;10508;50.956;4.640;2024-03-06T06:31:13;12.95;;;7.03;;
20697;SDS011;10508;50.956;4.640;2024-03-06T06:33:38;21.10;;;7.85;;
20697;SDS011;10508;50.956;4.640;2024-03-06T06:36:04;14.30;;;6.95;;
20697;SDS011;10508;50.956;4.640;2024-03-06T06:38:30;11.45;;;5.93;;
20697;SDS011;10508;50.956;4.640;2024-03-06T06:40:56;13.00;;;6.63;;
20697;SDS011;10508;50.956;4.640;2024-03-06T06:43:22;17.02;;;6.25;;
20697;SDS011;10508;50.956;4.640;2024-03-06T06:45:47;13.82;;;6.60;;
20697;SDS011;10508;50.956;4.640;2024-03-06T06:48:14;11.77;;;6.30;;
20697;SDS011;10508;50.956;4.640;2024-03-06T06:50:39;12.57;;;6.45;;
20697;SDS011;10508;50.956;4.640;2024-03-06T06:53:05;15.88;;;7.07;;
20697;SDS011;10508;50.956;4.640;2024-03-06T06:55:31;16.02;;;6.82;;
20697;SDS011;10508;50.956;4.640;2024-03-06T06:57:57;15.07;;;7.85;;
20697;SDS011;10508;50.956;4.640;2024-03-06T07:00:22;17.33;;;7.35;;
20697;SDS011;10508;50.956;4.640;2024-03-06T07:02:49;20.58;;;7.93;;
20697;SDS011;10508;50.956;4.640;2024-03-06T07:05:34;14.23;;;7.10;;
20697;SDS011;10508;50.956;4.640;2024-03-06T07:07:59;21.35;;;7.75;;
20697;SDS011;10508;50.956;4.640;2024-03-06T07:10:25;19.92;;;7.88;;
20697;SDS011;10508;50.956;4.640;2024-03-06T07:12:51;19.50;;;8.90;;
20697;SDS011;10508;50.956;4.640;2024-03-06T07:15:17;16.67;;;7.72;;
20697;SDS011;10508;50.956;4.640;2024-03-06T07:17:43;14.68;;;7.90;;
20697;SDS011;10508;50.956;4.640;2024-03-06T07:20:09;14.82;;;7.68;;
20697;SDS011;10508;50.956;4.640;2024-03-06T07:22:36;15.55;;;8.30;;
20697;SDS011;10508;50.956;4.640;2024-03-06T07:25:02;18.65;;;8.43;;
20697;SDS011;10508;50.956;4.640;2024-03-06T07:27:30;21.73;;;8.88;;
20697;SDS011;10508;50.956;4.640;2024-03-06T07:29:56;16.40;;;8.88;;
20697;SDS011;10508;50.956;4.640;2024-03-06T07:32:22;17.05;;;8.88;;
20697;SDS011;10508;50.956;4.640;2024-03-06T07:34:47;19.08;;;8.68;;
20697;SDS011;10508;50.956;4.640;2024-03-06T07:37:13;19.00;;;8.82;;
20697;SDS011;10508;50.956;4.640;2024-03-06T07:39:40;21.80;;;8.00;;
20697;SDS011;10508;50.956;4.640;2024-03-06T07:42:06;21.23;;;9.18;;
20697;SDS011;10508;50.956;4.640;2024-03-06T07:44:32;23.30;;;8.35;;
20697;SDS011;10508;50.956;4.640;2024-03-06T07:46:57;15.10;;;7.40;;
20697;SDS011;10508;50.956;4.640;2024-03-06T07:49:23;21.50;;;8.23;;
20697;SDS011;10508;50.956;4.640;2024-03-06T07:51:49;15.20;;;8.40;;
20697;SDS011;10508;50.956;4.640;2024-03-06T07:54:15;20.90;;;9.15;;
20697;SDS011;10508;50.956;4.640;2024-03-06T07:56:41;20.83;;;8.10;;
20697;SDS011;10508;50.956;4.640;2024-03-06T07:59:07;21.02;;;7.75;;
20697;SDS011;10508;50.956;4.640;2024-03-06T08:01:32;20.55;;;6.93;;
20697;SDS011;10508;50.956;4.640;2024-03-06T08:03:58;13.05;;;7.60;;
20697;SDS011;10508;50.956;4.640;2024-03-06T08:06:24;14.75;;;6.70;;
20697;SDS011;10508;50.956;4.640;2024-03-06T08:08:51;16.52;;;8.02;;
20697;SDS011;10508;50.956;4.640;2024-03-06T08:11:17;13.02;;;6.57;;
20697;SDS011;10508;50.956;4.640;2024-03-06T08:13:43;18.00;;;7.32;;
20697;SDS011;10508;50.956;4.640;2024-03-06T08:16:09;13.75;;;7.18;;
20697;SDS011;10508;50.956;4.640;2024-03-06T08:18:36;14.45;;;6.75;;
20697;SDS011;10508;50.956;4.640;2024-03-06T08:21:02;20.55;;;6.95;;
20697;SDS011;10508;50.956;4.640;2024-03-06T08:23:32;14.35;;;6.30;;
20697;SDS011;10508;50.956;4.640;2024-03-06T08:25:58;18.33;;;6.43;;
20697;SDS011;10508;50.956;4.640;2024-03-06T08:28:25;12.63;;;5.53;;
20697;SDS011;10508;50.956;4.640;2024-03-06T08:30:51;13.68;;;5.95;;
20697;SDS011;10508;50.956;4.640;2024-03-06T08:33:17;10.93;;;5.47;;
20697;SDS011;10508;50.956;4.640;2024-03-06T08:35:43;11.98;;;5.93;;
20697;SDS011;10508;50.956;4.640;2024-03-06T08:38:09;15.63;;;5.45;;
20697;SDS011;10508;50.956;4.640;2024-03-06T08:40:34;17.92;;;5.40;;
20697;SDS011;10508;50.956;4.640;2024-03-06T08:43:00;13.98;;;5.20;;
20697;SDS011;10508;50.956;4.640;2024-03-06T08:45:26;10.57;;;5.07;;
20697;SDS011;10508;50.956;4.640;2024-03-06T08:47:52;11.98;;;5.80;;
20697;SDS011;10508;50.956;4.640;2024-03-06T08:50:20;11.07;;;5.13;;
20697;SDS011;10508;50.956;4.640;2024-03-06T08:52:46;12.93;;;5.45;;
20697;SDS011;10508;50.956;4.640;2024-03-06T08:55:12;9.07;;;4.80;;
20697;SDS011;10508;50.956;4.640;2024-03-06T08:57:38;10.52;;;5.35;;
20697;SDS011;10508;50.956;4.640;2024-03-06T09:00:05;12.18;;;4.80;;
20697;SDS011;10508;50.956;4.640;2024-03-06T09:02:35;13.00;;;4.95;;
20697;SDS011;10508;50.956;4.640;2024-03-06T09:05:04;11.52;;;4.63;;
20697;SDS011;10508;50.956;4.640;2024-03-06T09:07:30;14.20;;;5.78;;
20697;SDS011;10508;50.956;4.640;2024-03-06T09:09:56;14.32;;;5.38;;
20697;SDS011;10508;50.956;4.640;2024-03-06T09:12:22;13.65;;;5.20;;
20697;SDS011;10508;50.956;4.640;2024-03-06T09:14:48;9.13;;;4.45;;
20697;SDS011;10508;50.956;4.640;2024-03-06T09:17:14;7.22;;;4.05;;
20697;SDS011;10508;50.956;4.640;2024-03-06T09:19:40;7.90;;;4.20;;
20697;SDS011;10508;50.956;4.640;2024-03-06T09:22:06;6.93;;;3.53;;
20697;SDS011;10508;50.956;4.640;2024-03-06T09:24:33;10.65;;;4.07;;
20697;SDS011;10508;50.956;4.640;2024-03-06T09:27:02;7.93;;;3.72;;
20697;SDS011;10508;50.956;4.640;2024-03-06T09:29:27;5.07;;;3.25;;
20697;SDS011;10508;50.956;4.640;2024-03-06T09:31:54;5.53;;;3.45;;
20697;SDS011;10508;50.956;4.640;2024-03-06T09:34:19;13.98;;;3.97;;
20697;SDS011;10508;50.956;4.640;2024-03-06T09:36:47;7.85;;;3.60;;
20697;SDS011;10508;50.956;4.640;2024-03-06T09:39:15;14.82;;;3.88;;
20697;SDS011;10508;50.956;4.640;2024-03-06T09:41:44;6.10;;;2.60;;
20697;SDS011;10508;50.956;4.640;2024-03-06T09:44:11;5.20;;;3.10;;
20697;SDS011;10508;50.956;4.640;2024-03-06T09:46:41;4.85;;;2.78;;
20697;SDS011;10508;50.956;4.640;2024-03-06T09:49:09;5.20;;;2.53;;
20697;SDS011;10508;50.956;4.640;2024-03-06T09:51:44;3.08;;;1.90;;
20697;SDS011;10508;50.956;4.640;2024-03-06T09:54:11;2.70;;;1.10;;
20697;SDS011;10508;50.956;4.640;2024-03-06T09:56:44;3.13;;;1.30;;
20697;SDS011;10508;50.956;4.640;2024-03-06T09:59:10;2.90;;;1.50;;
20697;SDS011;10508;50.956;4.640;2024-03-06T10:01:40;9.40;;;2.13;;
20697;SDS011;10508;50.956;4.640;2024-03-06T10:04:17;2.72;;;1.60;;
20697;SDS011;10508;50.956;4.640;2024-03-06T10:06:44;6.80;;;2.15;;
20697;SDS011;10508;50.956;4.640;2024-03-06T10:09:11;2.67;;;1.67;;
20697;SDS011;10508;50.956;4.640;2024-03-06T10:11:40;3.05;;;1.75;;
20697;SDS011;10508;50.956;4.640;2024-03-06T10:14:07;4.68;;;1.55;;
20697;SDS011;10508;50.956;4.640;2024-03-06T10:16:35;5.03;;;1.77;;
20697;SDS011;10508;50.956;4.640;2024-03-06T10:19:19;3.08;;;1.40;;
20697;SDS011;10508;50.956;4.640;2024-03-06T10:21:47;3.67;;;1.50;;
20697;SDS011;10508;50.956;4.640;2024-03-06T10:24:19;4.35;;;1.70;;
20697;SDS011;10508;50.956;4.640;2024-03-06T10:26:54;8.38;;;1.38;;
20697;SDS011;10508;50.956;4.640;2024-03-06T10:29:22;2.13;;;1.45;;
20697;SDS011;10508;50.956;4.640;2024-03-06T10:31:52;2.35;;;1.40;;
20697;SDS011;10508;50.956;4.640;2024-03-06T10:34:23;2.70;;;1.35;;
20697;SDS011;10508;50.956;4.640;2024-03-06T10:37:00;5.88;;;1.83;;
20697;SDS011;10508;50.956;4.640;2024-03-06T10:39:30;4.72;;;1.70;;
20697;SDS011;10508;50.956;4.640;2024-03-06T10:42:03;4.50;;;1.75;;
20697;SDS011;10508;50.956;4.640;2024-03-06T10:44:33;8.88;;;1.75;;
20697;SDS011;10508;50.956;4.640;2024-03-06T10:47:05;2.85;;;1.63;;
20697;SDS011;10508;50.956;4.640;2024-03-06T10:49:33;3.63;;;2.00;;
20697;SDS011;10508;50.956;4.640;2024-03-06T10:52:00;3.90;;;1.65;;
20697;SDS011;10508;50.956;4.640;2024-03-06T10:54:28;3.60;;;1.60;;
20697;SDS011;10508;50.956;4.640;2024-03-06T10:56:55;3.83;;;1.80;;
20697;SDS011;10508;50.956;4.640;2024-03-06T10:59:21;4.55;;;1.77;;
20697;SDS011;10508;50.956;4.640;2024-03-06T11:01:53;3.17;;;1.80;;
20697;SDS011;10508;50.956;4.640;2024-03-06T11:04:26;2.85;;;1.50;;
20697;SDS011;10508;50.956;4.640;2024-03-06T11:06:59;11.68;;;1.80;;
20697;SDS011;10508;50.956;4.640;2024-03-06T11:09:32;4.68;;;1.63;;
20697;SDS011;10508;50.956;4.640;2024-03-06T11:12:01;2.63;;;1.63;;
20697;SDS011;10508;50.956;4.640;2024-03-06T11:14:30;2.35;;;1.50;;
20697;SDS011;10508;50.956;4.640;2024-03-06T11:19:29;2.70;;;1.40;;
20697;SDS011;10508;50.956;4.640;2024-03-06T11:21:56;3.28;;;1.70;;
20697;SDS011;10508;50.956;4.640;2024-03-06T11:24:32;5.82;;;2.05;;
20697;SDS011;10508;50.956;4.640;2024-03-06T11:27:02;2.42;;;1.42;;
20697;SDS011;10508;50.956;4.640;2024-03-06T11:30:02;4.05;;;1.27;;
20697;SDS011;10508;50.956;4.640;2024-03-06T11:32:57;3.75;;;1.67;;
20697;SDS011;10508;50.956;4.640;2024-03-06T11:35:29;1.67;;;1.55;;
20697;SDS011;10508;50.956;4.640;2024-03-06T11:37:55;3.10;;;1.40;;
20697;SDS011;10508;50.956;4.640;2024-03-06T11:40:24;2.63;;;1.52;;
20697;SDS011;10508;50.956;4.640;2024-03-06T11:42:50;3.10;;;1.48;;
20697;SDS011;10508;50.956;4.640;2024-03-06T11:45:17;2.38;;;1.60;;
20697;SDS011;10508;50.956;4.640;2024-03-06T11:47:57;2.67;;;1.67;;
20697;SDS011;10508;50.956;4.640;2024-03-06T11:50:23;4.50;;;1.95;;
20697;SDS011;10508;50.956;4.640;2024-03-06T11:52:51;2.42;;;1.73;;
20697;SDS011;10508;50.956;4.640;2024-03-06T11:55:17;3.15;;;1.90;;
20697;SDS011;10508;50.956;4.640;2024-03-06T11:57:42;6.10;;;2.08;;
20697;SDS011;10508;50.956;4.640;2024-03-06T12:00:11;7.38;;;1.98;;
20697;SDS011;10508;50.956;4.640;2024-03-06T12:02:38;3.67;;;1.80;;
20697;SDS011;10508;50.956;4.640;2024-03-06T12:05:04;6.38;;;1.52;;
20697;SDS011;10508;50.956;4.640;2024-03-06T12:07:30;3.83;;;1.60;;
20697;SDS011;10508;50.956;4.640;2024-03-06T12:10:18;3.83;;;1.50;;
20697;SDS011;10508;50.956;4.640;2024-03-06T12:12:44;5.80;;;1.80;;
20697;SDS011;10508;50.956;4.640;2024-03-06T12:15:11;4.90;;;1.98;;
20697;SDS011;10508;50.956;4.640;2024-03-06T12:17:49;2.95;;;1.38;;
20697;SDS011;10508;50.956;4.640;2024-03-06T12:20:17;3.38;;;1.85;;
20697;SDS011;10508;50.956;4.640;2024-03-06T12:22:52;4.35;;;1.90;;
20697;SDS011;10508;50.956;4.640;2024-03-06T12:25:23;15.60;;;2.38;;
20697;SDS011;10508;50.956;4.640;2024-03-06T12:27:50;5.03;;;1.88;;
20697;SDS011;10508;50.956;4.640;2024-03-06T12:30:16;6.35;;;3.08;;
20697;SDS011;10508;50.956;4.640;2024-03-06T12:32:56;5.85;;;3.20;;
20697;SDS011;10508;50.956;4.640;2024-03-06T12:35:26;8.35;;;2.75;;
20697;SDS011;10508;50.956;4.640;2024-03-06T12:37:52;3.95;;;2.17;;
20697;SDS011;10508;50.956;4.640;2024-03-06T12:40:21;3.47;;;2.03;;
20697;SDS011;10508;50.956;4.640;2024-03-06T12:42:47;6.30;;;2.10;;
20697;SDS011;10508;50.956;4.640;2024-03-06T12:45:14;6.07;;;2.72;;
20697;SDS011;10508;50.956;4.640;2024-03-06T12:47:42;4.57;;;2.40;;
20697;SDS011;10508;50.956;4.640;2024-03-06T12:50:09;3.83;;;2.03;;
20697;SDS011;10508;50.956;4.640;2024-03-06T12:52:36;5.28;;;2.40;;
20697;SDS011;10508;50.956;4.640;2024-03-06T12:55:02;4.88;;;2.33;;
20697;SDS011;10508;50.956;4.640;2024-03-06T12:57:30;4.15;;;2.15;;
20697;SDS011;10508;50.956;4.640;2024-03-06T12:59:56;4.15;;;2.40;;
20697;SDS011;10508;50.956;4.640;2024-03-06T13:02:22;6.10;;;2.10;;
20697;SDS011;10508;50.956;4.640;2024-03-06T13:04:48;5.22;;;2.08;;
20697;SDS011;10508;50.956;4.640;2024-03-06T13:07:14;3.30;;;1.58;;
20697;SDS011;10508;50.956;4.640;2024-03-06T13:09:40;6.25;;;2.15;;
20697;SDS011;10508;50.956;4.640;2024-03-06T13:12:05;5.10;;;2.20;;
20697;SDS011;10508;50.956;4.640;2024-03-06T13:14:32;4.65;;;2.10;;
20697;SDS011;10508;50.956;4.640;2024-03-06T13:16:58;3.88;;;2.30;;
20697;SDS011;10508;50.956;4.640;2024-03-06T13:19:24;5.50;;;2.20;;
20697;SDS011;10508;50.956;4.640;2024-03-06T13:21:50;5.65;;;2.28;;
20697;SDS011;10508;50.956;4.640;2024-03-06T13:24:17;7.78;;;2.60;;
20697;SDS011;10508;50.956;4.640;2024-03-06T13:26:44;8.38;;;2.22;;
20697;SDS011;10508;50.956;4.640;2024-03-06T13:29:11;3.50;;;1.55;;
20697;SDS011;10508;50.956;4.640;2024-03-06T13:31:38;4.80;;;2.00;;
20697;SDS011;10508;50.956;4.640;2024-03-06T13:34:08;5.15;;;2.05;;
20697;SDS011;10508;50.956;4.640;2024-03-06T13:36:34;4.85;;;2.00;;
20697;SDS011;10508;50.956;4.640;2024-03-06T13:38:59;6.22;;;2.28;;
20697;SDS011;10508;50.956;4.640;2024-03-06T13:41:25;4.57;;;1.92;;
20697;SDS011;10508;50.956;4.640;2024-03-06T13:43:51;6.13;;;2.10;;
20697;SDS011;10508;50.956;4.640;2024-03-06T13:46:17;3.70;;;1.85;;
20697;SDS011;10508;50.956;4.640;2024-03-06T13:48:43;3.90;;;1.70;;
20697;SDS011;10508;50.956;4.640;2024-03-06T13:51:09;5.03;;;1.70;;
20697;SDS011;10508;50.956;4.640;2024-03-06T13:53:35;3.95;;;2.03;;
20697;SDS011;10508;50.956;4.640;2024-03-06T13:56:01;3.75;;;1.90;;
20697;SDS011;10508;50.956;4.640;2024-03-06T13:58:27;4.50;;;2.00;;
20697;SDS011;10508;50.956;4.640;2024-03-06T14:00:53;6.95;;;2.08;;
20697;SDS011;10508;50.956;4.640;2024-03-06T14:03:19;4.55;;;2.10;;
20697;SDS011;10508;50.956;4.640;2024-03-06T14:05:44;2.92;;;1.40;;
20697;SDS011;10508;50.956;4.640;2024-03-06T14:08:11;6.88;;;1.95;;
20697;SDS011;10508;50.956;4.640;2024-03-06T14:10:40;9.43;;;1.80;;
20697;SDS011;10508;50.956;4.640;2024-03-06T14:13:06;8.73;;;1.77;;
20697;SDS011;10508;50.956;4.640;2024-03-06T14:15:33;4.82;;;1.73;;
20697;SDS011;10508;50.956;4.640;2024-03-06T14:17:59;7.32;;;1.65;;
20697;SDS011;10508;50.956;4.640;2024-03-06T14:20:26;9.15;;;1.92;;
20697;SDS011;10508;50.956;4.640;2024-03-06T14:22:53;3.97;;;1.20;;
20697;SDS011;10508;50.956;4.640;2024-03-06T14:25:19;6.55;;;1.40;;
20697;SDS011;10508;50.956;4.640;2024-03-06T14:27:46;5.63;;;1.77;;
20697;SDS011;10508;50.956;4.640;2024-03-06T14:30:12;3.35;;;1.48;;
20697;SDS011;10508;50.956;4.640;2024-03-06T14:32:40;4.70;;;1.90;;
20697;SDS011;10508;50.956;4.640;2024-03-06T14:35:06;5.40;;;1.27;;
20697;SDS011;10508;50.956;4.640;2024-03-06T14:37:32;2.63;;;1.30;;
20697;SDS011;10508;50.956;4.640;2024-03-06T14:39:58;3.65;;;1.33;;
20697;SDS011;10508;50.956;4.640;2024-03-06T14:42:24;2.53;;;1.23;;
20697;SDS011;10508;50.956;4.640;2024-03-06T14:44:50;3.25;;;1.10;;